sensor_id;sensor_type;location;lat;lon;timestamp;pressure;altitude;pressure_sealevel;temperature;humidity
64792;BME280;51226;47.504;19.074;2023-05-07T00:01:39;100252.09;;;17.34;75.01
64792;BME280;51226;47.504;19.074;2023-05-07T00:04:42;100252.94;;;17.33;74.79
64792;BME280;51226;47.504;19.074;2023-05-07T00:07:46;100259.09;;;17.34;74.57
64792;BME280;51226;47.504;19.074;2023-05-07T00:10:49;100251.19;;;17.34;74.41
64792;BME280;51226;47.504;19.074;2023-05-07T00:13:52;100253.97;;;17.54;66.67
64792;BME280;51226;47.504;19.074;2023-05-07T00:16:55;100244.37;;;17.64;65.42
64792;BME280;51226;47.504;19.074;2023-05-07T00:19:57;100251.22;;;17.37;69.04
64792;BME280;51226;47.504;19.074;2023-05-07T00:23:00;100248.50;;;17.26;70.79
64792;BME280;51226;47.504;19.074;2023-05-07T00:26:03;100256.41;;;17.25;71.16
64792;BME280;51226;47.504;19.074;2023-05-07T00:29:06;100256.41;;;17.25;70.42
64792;BME280;51226;47.504;19.074;2023-05-07T00:32:09;100266.91;;;17.21;70.55
64792;BME280;51226;47.504;19.074;2023-05-07T00:35:12;100267.78;;;17.23;70.01
64792;BME280;51226;47.504;19.074;2023-05-07T00:38:14;100268.69;;;17.22;71.29
64792;BME280;51226;47.504;19.074;2023-05-07T00:41:18;100265.13;;;17.22;73.01
64792;BME280;51226;47.504;19.074;2023-05-07T00:44:20;100266.06;;;17.22;74.01
64792;BME280;51226;47.504;19.074;2023-05-07T00:47:23;100262.53;;;17.25;72.63
64792;BME280;51226;47.504;19.074;2023-05-07T00:50:27;100272.19;;;17.21;72.25
64792;BME280;51226;47.504;19.074;2023-05-07T00:53:30;100273.94;;;17.21;73.10
64792;BME280;51226;47.504;19.074;2023-05-07T00:56:33;100276.53;;;17.16;73.89
64792;BME280;51226;47.504;19.074;2023-05-07T00:59:36;100275.66;;;17.16;74.59
64792;BME280;51226;47.504;19.074;2023-05-07T01:02:39;100273.88;;;17.16;75.34
64792;BME280;51226;47.504;19.074;2023-05-07T01:05:42;100271.22;;;17.13;75.73
64792;BME280;51226;47.504;19.074;2023-05-07T01:08:47;100264.19;;;17.14;75.92
64792;BME280;51226;47.504;19.074;2023-05-07T01:11:53;100271.19;;;17.12;75.10
64792;BME280;51226;47.504;19.074;2023-05-07T01:14:55;100265.06;;;17.11;75.42
64792;BME280;51226;47.504;19.074;2023-05-07T01:17:59;100269.47;;;17.11;75.57
64792;BME280;51226;47.504;19.074;2023-05-07T01:21:03;100272.09;;;17.11;75.56
64792;BME280;51226;47.504;19.074;2023-05-07T01:24:07;100280.87;;;17.11;75.85
64792;BME280;51226;47.504;19.074;2023-05-07T01:27:10;100282.62;;;17.14;75.17
64792;BME280;51226;47.504;19.074;2023-05-07T01:30:13;100287.87;;;17.12;74.41
64792;BME280;51226;47.504;19.074;2023-05-07T01:33:16;100285.22;;;17.08;74.71
64792;BME280;51226;47.504;19.074;2023-05-07T01:36:21;100288.75;;;17.10;74.36
64792;BME280;51226;47.504;19.074;2023-05-07T01:39:26;100286.09;;;17.07;75.02
64792;BME280;51226;47.504;19.074;2023-05-07T01:42:30;100287.84;;;17.06;75.65
64792;BME280;51226;47.504;19.074;2023-05-07T01:45:34;100283.41;;;17.02;75.03
64792;BME280;51226;47.504;19.074;2023-05-07T01:48:38;100281.66;;;17.01;75.45
64792;BME280;51226;47.504;19.074;2023-05-07T01:51:41;100275.47;;;17.00;75.76
64792;BME280;51226;47.504;19.074;2023-05-07T01:54:44;100271.94;;;16.98;76.26
64792;BME280;51226;47.504;19.074;2023-05-07T01:57:46;100271.06;;;16.96;76.69
64792;BME280;51226;47.504;19.074;2023-05-07T02:00:49;100267.53;;;16.94;75.23
64792;BME280;51226;47.504;19.074;2023-05-07T02:03:52;100265.66;;;16.85;75.58
64792;BME280;51226;47.504;19.074;2023-05-07T02:06:57;100264.75;;;16.83;75.78
64792;BME280;51226;47.504;19.074;2023-05-07T02:09:59;100268.22;;;16.79;75.73
64792;BME280;51226;47.504;19.074;2023-05-07T02:13:02;100259.44;;;16.77;76.70
64792;BME280;51226;47.504;19.074;2023-05-07T02:16:06;100255.03;;;16.78;77.17
64792;BME280;51226;47.504;19.074;2023-05-07T02:19:09;100253.25;;;16.77;76.69
64792;BME280;51226;47.504;19.074;2023-05-07T02:22:12;100260.25;;;16.75;77.00
64792;BME280;51226;47.504;19.074;2023-05-07T02:25:15;100257.63;;;16.73;76.98
64792;BME280;51226;47.504;19.074;2023-05-07T02:28:18;100258.47;;;16.72;77.09
64792;BME280;51226;47.504;19.074;2023-05-07T02:31:22;100258.47;;;16.69;77.11
64792;BME280;51226;47.504;19.074;2023-05-07T02:34:25;100255.78;;;16.66;77.40
64792;BME280;51226;47.504;19.074;2023-05-07T02:37:28;100255.75;;;16.63;77.38
64792;BME280;51226;47.504;19.074;2023-05-07T02:40:31;100257.50;;;16.61;77.40
64792;BME280;51226;47.504;19.074;2023-05-07T02:43:36;100257.47;;;16.59;77.79
64792;BME280;51226;47.504;19.074;2023-05-07T02:46:39;100249.56;;;16.58;78.05
64792;BME280;51226;47.504;19.074;2023-05-07T02:49:42;100254.81;;;16.58;78.13
64792;BME280;51226;47.504;19.074;2023-05-07T02:52:45;100258.28;;;16.55;77.84
64792;BME280;51226;47.504;19.074;2023-05-07T02:55:48;100257.37;;;16.53;78.12
64792;BME280;51226;47.504;19.074;2023-05-07T02:58:50;100255.62;;;16.52;77.41
64792;BME280;51226;47.504;19.074;2023-05-07T03:01:53;100264.41;;;16.51;77.69
64792;BME280;51226;47.504;19.074;2023-05-07T03:04:56;100265.22;;;16.48;77.93
64792;BME280;51226;47.504;19.074;2023-05-07T03:07:59;100266.97;;;16.46;78.01
64792;BME280;51226;47.504;19.074;2023-05-07T03:11:01;100264.34;;;16.46;77.33
64792;BME280;51226;47.504;19.074;2023-05-07T03:14:04;100263.34;;;16.38;77.10
64792;BME280;51226;47.504;19.074;2023-05-07T03:17:07;100264.25;;;16.37;78.07
64792;BME280;51226;47.504;19.074;2023-05-07T03:20:10;100265.97;;;16.38;77.99
64792;BME280;51226;47.504;19.074;2023-05-07T03:23:13;100261.59;;;16.36;77.73
64792;BME280;51226;47.504;19.074;2023-05-07T03:26:17;100266.88;;;16.37;77.36
64792;BME280;51226;47.504;19.074;2023-05-07T03:29:19;100265.97;;;16.38;77.93
64792;BME280;51226;47.504;19.074;2023-05-07T03:32:22;100266.00;;;16.40;77.96
64792;BME280;51226;47.504;19.074;2023-05-07T03:35:25;100259.88;;;16.41;77.22
64792;BME280;51226;47.504;19.074;2023-05-07T03:38:28;100265.19;;;16.42;76.56
64792;BME280;51226;47.504;19.074;2023-05-07T03:41:32;100267.81;;;16.42;76.32
64792;BME280;51226;47.504;19.074;2023-05-07T03:44:35;100265.16;;;16.41;77.23
64792;BME280;51226;47.504;19.074;2023-05-07T03:47:38;100262.53;;;16.41;76.12
64792;BME280;51226;47.504;19.074;2023-05-07T03:50:42;100266.84;;;16.36;75.72
64792;BME280;51226;47.504;19.074;2023-05-07T03:53:45;100270.31;;;16.33;75.91
64792;BME280;51226;47.504;19.074;2023-05-07T03:56:48;100265.03;;;16.33;76.02
64792;BME280;51226;47.504;19.074;2023-05-07T03:59:51;100268.53;;;16.32;76.56
64792;BME280;51226;47.504;19.074;2023-05-07T04:02:54;100270.25;;;16.30;76.69
64792;BME280;51226;47.504;19.074;2023-05-07T04:05:58;100273.78;;;16.32;76.71
64792;BME280;51226;47.504;19.074;2023-05-07T04:09:01;100283.44;;;16.30;77.18
64792;BME280;51226;47.504;19.074;2023-05-07T04:12:04;100281.72;;;16.35;77.93
64792;BME280;51226;47.504;19.074;2023-05-07T04:15:08;100273.91;;;16.40;77.84
64792;BME280;51226;47.504;19.074;2023-05-07T04:18:11;100280.97;;;16.42;77.28
64792;BME280;51226;47.504;19.074;2023-05-07T04:21:19;100279.25;;;16.46;76.70
64792;BME280;51226;47.504;19.074;2023-05-07T04:24:23;100286.22;;;16.42;76.23
64792;BME280;51226;47.504;19.074;2023-05-07T04:27:26;100288.78;;;16.36;76.30
64792;BME280;51226;47.504;19.074;2023-05-07T04:30:30;100295.69;;;16.28;76.48
64792;BME280;51226;47.504;19.074;2023-05-07T04:33:33;100307.03;;;16.25;75.99
64792;BME280;51226;47.504;19.074;2023-05-07T04:36:39;100307.12;;;16.30;75.46
64792;BME280;51226;47.504;19.074;2023-05-07T04:39:44;100303.50;;;16.23;75.99
64792;BME280;51226;47.504;19.074;2023-05-07T04:42:47;100301.78;;;16.25;76.95
64792;BME280;51226;47.504;19.074;2023-05-07T04:45:50;100303.66;;;16.33;76.75
64792;BME280;51226;47.504;19.074;2023-05-07T04:48:54;100302.06;;;16.44;74.71
64792;BME280;51226;47.504;19.074;2023-05-07T04:51:58;100307.31;;;16.44;74.19
64792;BME280;51226;47.504;19.074;2023-05-07T04:55:01;100305.59;;;16.46;73.84
64792;BME280;51226;47.504;19.074;2023-05-07T04:58:05;100307.41;;;16.53;73.61
64792;BME280;51226;47.504;19.074;2023-05-07T05:01:09;100301.31;;;16.56;73.62
64792;BME280;51226;47.504;19.074;2023-05-07T05:04:12;100303.19;;;16.66;73.23
64792;BME280;51226;47.504;19.074;2023-05-07T05:07:15;100301.41;;;16.65;73.09
64792;BME280;51226;47.504;19.074;2023-05-07T05:10:18;100312.03;;;16.71;73.22
64792;BME280;51226;47.504;19.074;2023-05-07T05:13:23;100314.72;;;16.79;73.01
64792;BME280;51226;47.504;19.074;2023-05-07T05:16:26;100318.34;;;16.85;72.63
64792;BME280;51226;47.504;19.074;2023-05-07T05:19:29;100317.56;;;16.93;72.18
64792;BME280;51226;47.504;19.074;2023-05-07T05:22:32;100305.34;;;16.98;71.77
64792;BME280;51226;47.504;19.074;2023-05-07T05:25:36;100315.13;;;17.10;72.01
64792;BME280;51226;47.504;19.074;2023-05-07T05:28:39;100315.19;;;17.17;71.36
64792;BME280;51226;47.504;19.074;2023-05-07T05:31:42;100313.53;;;17.29;72.28
64792;BME280;51226;47.504;19.074;2023-05-07T05:34:45;100326.84;;;17.41;72.75
64792;BME280;51226;47.504;19.074;2023-05-07T05:37:48;100322.53;;;17.54;73.04
64792;BME280;51226;47.504;19.074;2023-05-07T05:40:51;100319.13;;;17.63;70.12
64792;BME280;51226;47.504;19.074;2023-05-07T05:43:58;100309.47;;;17.68;69.08
64792;BME280;51226;47.504;19.074;2023-05-07T05:47:01;100308.50;;;17.56;69.37
64792;BME280;51226;47.504;19.074;2023-05-07T05:50:04;100304.09;;;17.57;69.54
64792;BME280;51226;47.504;19.074;2023-05-07T05:53:08;100311.19;;;17.59;69.57
64792;BME280;51226;47.504;19.074;2023-05-07T05:56:11;100306.81;;;17.65;69.35
64792;BME280;51226;47.504;19.074;2023-05-07T05:59:15;100308.56;;;17.67;69.55
64792;BME280;51226;47.504;19.074;2023-05-07T06:02:18;100310.41;;;17.73;69.96
64792;BME280;51226;47.504;19.074;2023-05-07T06:05:22;100313.12;;;17.85;69.61
64792;BME280;51226;47.504;19.074;2023-05-07T06:08:25;100308.75;;;17.87;69.51
64792;BME280;51226;47.504;19.074;2023-05-07T06:11:28;100313.19;;;17.90;69.51
64792;BME280;51226;47.504;19.074;2023-05-07T06:14:31;100300.00;;;17.91;70.01
64792;BME280;51226;47.504;19.074;2023-05-07T06:17:34;100302.69;;;18.02;68.94
64792;BME280;51226;47.504;19.074;2023-05-07T06:20:36;100308.97;;;18.18;68.28
64792;BME280;51226;47.504;19.074;2023-05-07T06:23:40;100310.75;;;18.24;68.29
64792;BME280;51226;47.504;19.074;2023-05-07T06:26:43;100316.97;;;18.37;67.41
64792;BME280;51226;47.504;19.074;2023-05-07T06:29:48;100319.72;;;18.58;65.69
64792;BME280;51226;47.504;19.074;2023-05-07T06:32:51;100320.62;;;18.63;66.67
64792;BME280;51226;47.504;19.074;2023-05-07T06:35:54;100312.72;;;18.74;66.12
64792;BME280;51226;47.504;19.074;2023-05-07T06:38:57;100314.59;;;18.84;66.59
64792;BME280;51226;47.504;19.074;2023-05-07T06:42:01;100314.63;;;19.00;64.29
64792;BME280;51226;47.504;19.074;2023-05-07T06:45:05;100310.22;;;19.19;64.87
64792;BME280;51226;47.504;19.074;2023-05-07T06:48:08;100310.25;;;19.43;63.89
64792;BME280;51226;47.504;19.074;2023-05-07T06:51:13;100306.75;;;19.63;63.34
64792;BME280;51226;47.504;19.074;2023-05-07T06:54:16;100312.03;;;19.91;63.84
64792;BME280;51226;47.504;19.074;2023-05-07T06:57:19;100310.19;;;20.19;63.41
64792;BME280;51226;47.504;19.074;2023-05-07T07:00:22;100313.66;;;20.44;58.81
64792;BME280;51226;47.504;19.074;2023-05-07T07:03:25;100309.19;;;20.59;59.86
64792;BME280;51226;47.504;19.074;2023-05-07T07:06:29;100304.66;;;20.91;55.54
64792;BME280;51226;47.504;19.074;2023-05-07T07:09:34;100315.19;;;21.04;56.72
64792;BME280;51226;47.504;19.074;2023-05-07T07:12:38;100313.16;;;21.38;53.55
64792;BME280;51226;47.504;19.074;2023-05-07T07:15:40;100317.47;;;21.59;52.59
64792;BME280;51226;47.504;19.074;2023-05-07T07:18:44;100314.78;;;21.64;52.65
64792;BME280;51226;47.504;19.074;2023-05-07T07:21:46;100313.84;;;21.65;52.22
64792;BME280;51226;47.504;19.074;2023-05-07T07:24:49;100318.28;;;21.64;54.24
64792;BME280;51226;47.504;19.074;2023-05-07T07:27:53;100325.41;;;21.62;54.95
64792;BME280;51226;47.504;19.074;2023-05-07T07:30:57;100326.28;;;21.58;54.38
64792;BME280;51226;47.504;19.074;2023-05-07T07:34:00;100333.19;;;21.81;52.42
64792;BME280;51226;47.504;19.074;2023-05-07T07:37:03;100338.53;;;21.78;53.92
64792;BME280;51226;47.504;19.074;2023-05-07T07:40:08;100335.00;;;21.77;53.33
64792;BME280;51226;47.504;19.074;2023-05-07T07:43:12;100341.87;;;21.98;54.01
64792;BME280;51226;47.504;19.074;2023-05-07T07:46:15;100338.09;;;22.23;53.69
64792;BME280;51226;47.504;19.074;2023-05-07T07:49:18;100346.44;;;22.72;50.53
64792;BME280;51226;47.504;19.074;2023-05-07T07:52:22;100351.59;;;22.83;50.64
64792;BME280;51226;47.504;19.074;2023-05-07T07:55:24;100336.22;;;23.05;51.10
64792;BME280;51226;47.504;19.074;2023-05-07T07:58:28;100343.00;;;23.29;49.51
64792;BME280;51226;47.504;19.074;2023-05-07T08:01:32;100337.06;;;23.68;48.96
64792;BME280;51226;47.504;19.074;2023-05-07T08:04:35;100337.94;;;23.68;49.84
64792;BME280;51226;47.504;19.074;2023-05-07T08:07:39;100344.50;;;23.47;50.65
64792;BME280;51226;47.504;19.074;2023-05-07T08:10:43;100344.47;;;23.51;47.80
64792;BME280;51226;47.504;19.074;2023-05-07T08:13:46;100343.88;;;23.30;47.54
64792;BME280;51226;47.504;19.074;2023-05-07T08:16:50;100337.91;;;23.14;48.70
64792;BME280;51226;47.504;19.074;2023-05-07T08:19:53;100344.88;;;23.23;47.42
64792;BME280;51226;47.504;19.074;2023-05-07T08:22:56;100343.38;;;23.00;45.22
64792;BME280;51226;47.504;19.074;2023-05-07T08:26:00;100337.53;;;22.73;46.13
64792;BME280;51226;47.504;19.074;2023-05-07T08:29:04;100346.66;;;22.54;49.71
64792;BME280;51226;47.504;19.074;2023-05-07T08:32:07;100346.78;;;22.42;47.37
64792;BME280;51226;47.504;19.074;2023-05-07T08:35:10;100329.16;;;22.34;48.27
64792;BME280;51226;47.504;19.074;2023-05-07T08:38:13;100322.88;;;22.38;47.75
64792;BME280;51226;47.504;19.074;2023-05-07T08:41:16;100322.13;;;22.29;48.20
64792;BME280;51226;47.504;19.074;2023-05-07T08:44:19;100327.47;;;22.24;48.05
64792;BME280;51226;47.504;19.074;2023-05-07T08:47:26;100326.41;;;22.44;46.47
64792;BME280;51226;47.504;19.074;2023-05-07T08:50:35;100329.09;;;22.39;47.11
64792;BME280;51226;47.504;19.074;2023-05-07T08:53:40;100335.13;;;22.52;47.50
64792;BME280;51226;47.504;19.074;2023-05-07T08:56:44;100326.69;;;23.53;45.17
64792;BME280;51226;47.504;19.074;2023-05-07T08:59:47;100321.19;;;23.60;43.19
64792;BME280;51226;47.504;19.074;2023-05-07T09:02:50;100331.25;;;23.44;43.87
64792;BME280;51226;47.504;19.074;2023-05-07T09:05:53;100326.75;;;23.48;43.37
64792;BME280;51226;47.504;19.074;2023-05-07T09:08:56;100330.81;;;23.15;44.17
64792;BME280;51226;47.504;19.074;2023-05-07T09:12:00;100324.34;;;23.33;44.45
64792;BME280;51226;47.504;19.074;2023-05-07T09:15:05;100328.31;;;23.60;45.70
64792;BME280;51226;47.504;19.074;2023-05-07T09:18:08;100332.88;;;24.08;42.89
64792;BME280;51226;47.504;19.074;2023-05-07T09:21:15;100323.31;;;24.42;40.51
64792;BME280;51226;47.504;19.074;2023-05-07T09:24:19;100328.50;;;24.49;40.65
64792;BME280;51226;47.504;19.074;2023-05-07T09:27:22;100325.75;;;24.55;40.52
64792;BME280;51226;47.504;19.074;2023-05-07T09:30:30;100331.87;;;24.58;41.96
64792;BME280;51226;47.504;19.074;2023-05-07T09:33:33;100329.66;;;24.79;41.60
64792;BME280;51226;47.504;19.074;2023-05-07T09:36:37;100327.38;;;25.43;39.80
64792;BME280;51226;47.504;19.074;2023-05-07T09:42:43;100323.81;;;26.44;36.68
64792;BME280;51226;47.504;19.074;2023-05-07T09:45:46;100318.81;;;26.95;36.55
64792;BME280;51226;47.504;19.074;2023-05-07T09:48:56;100325.81;;;26.99;36.22
64792;BME280;51226;47.504;19.074;2023-05-07T09:52:00;100326.38;;;26.80;36.63
64792;BME280;51226;47.504;19.074;2023-05-07T09:55:04;100319.38;;;27.34;36.87
64792;BME280;51226;47.504;19.074;2023-05-07T09:58:08;100316.53;;;27.39;35.37
64792;BME280;51226;47.504;19.074;2023-05-07T10:01:12;100319.59;;;27.27;36.07
64792;BME280;51226;47.504;19.074;2023-05-07T10:04:16;100323.66;;;26.82;36.63
64792;BME280;51226;47.504;19.074;2023-05-07T10:07:19;100327.91;;;26.27;38.10
64792;BME280;51226;47.504;19.074;2023-05-07T10:10:24;100324.91;;;25.70;40.97
64792;BME280;51226;47.504;19.074;2023-05-07T10:13:27;100319.53;;;25.36;41.28
64792;BME280;51226;47.504;19.074;2023-05-07T10:16:33;100327.53;;;24.96;44.49
64792;BME280;51226;47.504;19.074;2023-05-07T10:19:39;100331.72;;;24.68;44.01
64792;BME280;51226;47.504;19.074;2023-05-07T10:22:44;100328.31;;;24.59;42.62
64792;BME280;51226;47.504;19.074;2023-05-07T10:25:48;100323.94;;;24.55;42.22
64792;BME280;51226;47.504;19.074;2023-05-07T10:28:53;100321.22;;;24.12;43.47
64792;BME280;51226;47.504;19.074;2023-05-07T10:32:45;100325.31;;;23.83;44.48
64792;BME280;51226;47.504;19.074;2023-05-07T10:35:21;100317.53;;;23.69;45.15
64792;BME280;51226;47.504;19.074;2023-05-07T10:38:25;100327.72;;;23.44;47.57
64792;BME280;51226;47.504;19.074;2023-05-07T10:41:29;100317.63;;;23.63;44.53
64792;BME280;51226;47.504;19.074;2023-05-07T10:44:32;100321.81;;;23.78;43.90
64792;BME280;51226;47.504;19.074;2023-05-07T10:47:36;100320.75;;;23.90;44.57
64792;BME280;51226;47.504;19.074;2023-05-07T10:54:21;100322.13;;;23.59;46.67
64792;BME280;51226;47.504;19.074;2023-05-07T11:10:13;100316.91;;;24.06;44.83
64792;BME280;51226;47.504;19.074;2023-05-07T11:13:18;100317.78;;;24.07;45.77
64792;BME280;51226;47.504;19.074;2023-05-07T11:16:23;100310.91;;;24.84;43.14
64792;BME280;51226;47.504;19.074;2023-05-07T11:20:01;100310.97;;;25.93;40.33
64792;BME280;51226;47.504;19.074;2023-05-07T11:22:57;100317.75;;;26.71;38.30
64792;BME280;51226;47.504;19.074;2023-05-07T11:26:05;100306.06;;;27.58;36.13
64792;BME280;51226;47.504;19.074;2023-05-07T11:29:26;100303.44;;;28.10;34.75
64792;BME280;51226;47.504;19.074;2023-05-07T11:32:31;100308.47;;;28.19;34.39
64792;BME280;51226;47.504;19.074;2023-05-07T11:35:35;100312.88;;;28.45;33.01
64792;BME280;51226;47.504;19.074;2023-05-07T11:38:39;100298.56;;;28.70;33.21
64792;BME280;51226;47.504;19.074;2023-05-07T11:41:42;100301.41;;;28.89;32.57
64792;BME280;51226;47.504;19.074;2023-05-07T11:44:45;100297.94;;;28.63;33.12
64792;BME280;51226;47.504;19.074;2023-05-07T11:47:48;100303.25;;;28.15;34.62
64792;BME280;51226;47.504;19.074;2023-05-07T11:50:52;100297.03;;;28.14;32.48
64792;BME280;51226;47.504;19.074;2023-05-07T11:53:55;100300.53;;;28.16;35.95
64792;BME280;51226;47.504;19.074;2023-05-07T11:56:58;100294.28;;;28.16;32.42
64792;BME280;51226;47.504;19.074;2023-05-07T12:00:01;100286.44;;;28.35;31.05
64792;BME280;51226;47.504;19.074;2023-05-07T12:03:13;100286.62;;;28.05;31.89
64792;BME280;51226;47.504;19.074;2023-05-07T12:06:16;100284.13;;;28.00;32.16
64792;BME280;51226;47.504;19.074;2023-05-07T12:09:19;100280.69;;;28.45;32.43
64792;BME280;51226;47.504;19.074;2023-05-07T12:12:22;100283.31;;;28.71;31.01
64792;BME280;51226;47.504;19.074;2023-05-07T12:15:24;100284.13;;;29.18;30.74
64792;BME280;51226;47.504;19.074;2023-05-07T12:18:27;100279.50;;;29.44;29.54
64792;BME280;51226;47.504;19.074;2023-05-07T12:21:30;100281.03;;;29.50;29.53
64792;BME280;51226;47.504;19.074;2023-05-07T12:24:45;100288.59;;;29.62;32.45
64792;BME280;51226;47.504;19.074;2023-05-07T12:27:52;100272.88;;;28.63;27.99
64792;BME280;51226;47.504;19.074;2023-05-07T12:30:55;100269.47;;;28.81;28.99
64792;BME280;51226;47.504;19.074;2023-05-07T12:33:57;100277.09;;;28.92;30.80
64792;BME280;51226;47.504;19.074;2023-05-07T12:37:03;100271.13;;;29.30;29.70
64792;BME280;51226;47.504;19.074;2023-05-07T12:40:06;100271.44;;;29.65;29.98
64792;BME280;51226;47.504;19.074;2023-05-07T12:46:20;100268.06;;;29.39;29.15
64792;BME280;51226;47.504;19.074;2023-05-07T12:49:23;100260.59;;;29.01;29.63
64792;BME280;51226;47.504;19.074;2023-05-07T12:52:26;100264.31;;;28.99;30.67
64792;BME280;51226;47.504;19.074;2023-05-07T12:55:29;100263.97;;;29.30;29.31
64792;BME280;51226;47.504;19.074;2023-05-07T12:58:36;100273.47;;;28.93;30.25
64792;BME280;51226;47.504;19.074;2023-05-07T13:01:39;100267.91;;;28.76;29.44
64792;BME280;51226;47.504;19.074;2023-05-07T13:04:42;100256.66;;;28.66;28.86
64792;BME280;51226;47.504;19.074;2023-05-07T13:07:54;100261.56;;;28.53;30.77
64792;BME280;51226;47.504;19.074;2023-05-07T13:10:58;100260.53;;;28.59;29.28
64792;BME280;51226;47.504;19.074;2023-05-07T13:14:00;100253.91;;;28.68;29.15
64792;BME280;51226;47.504;19.074;2023-05-07T13:17:03;100257.41;;;28.70;31.06
64792;BME280;51226;47.504;19.074;2023-05-07T13:20:06;100248.19;;;28.99;29.58
64792;BME280;51226;47.504;19.074;2023-05-07T13:23:10;100249.56;;;28.87;29.53
64792;BME280;51226;47.504;19.074;2023-05-07T13:26:13;100245.75;;;28.93;29.12
64792;BME280;51226;47.504;19.074;2023-05-07T13:29:28;100241.81;;;29.01;29.25
64792;BME280;51226;47.504;19.074;2023-05-07T13:32:32;100237.34;;;29.02;29.87
64792;BME280;51226;47.504;19.074;2023-05-07T13:35:35;100229.97;;;29.07;29.16
64792;BME280;51226;47.504;19.074;2023-05-07T13:38:38;100240.19;;;28.97;29.71
64792;BME280;51226;47.504;19.074;2023-05-07T13:41:41;100238.56;;;28.93;29.47
64792;BME280;51226;47.504;19.074;2023-05-07T13:44:44;100237.47;;;28.77;33.31
64792;BME280;51226;47.504;19.074;2023-05-07T13:47:47;100220.97;;;28.86;29.55
64792;BME280;51226;47.504;19.074;2023-05-07T13:50:51;100222.72;;;28.87;30.15
64792;BME280;51226;47.504;19.074;2023-05-07T13:53:54;100222.03;;;28.82;30.48
64792;BME280;51226;47.504;19.074;2023-05-07T13:56:56;100223.94;;;28.56;33.72
64792;BME280;51226;47.504;19.074;2023-05-07T13:59:59;100229.63;;;28.47;30.94
64792;BME280;51226;47.504;19.074;2023-05-07T14:03:02;100223.81;;;28.36;31.79
64792;BME280;51226;47.504;19.074;2023-05-07T14:06:05;100215.12;;;28.29;31.72
64792;BME280;51226;47.504;19.074;2023-05-07T14:09:07;100218.19;;;27.95;31.76
64792;BME280;51226;47.504;19.074;2023-05-07T14:12:10;100213.25;;;27.57;32.03
64792;BME280;51226;47.504;19.074;2023-05-07T14:15:13;100223.00;;;27.58;32.07
64792;BME280;51226;47.504;19.074;2023-05-07T14:18:16;100221.78;;;27.43;32.25
64792;BME280;51226;47.504;19.074;2023-05-07T14:21:18;100221.31;;;27.30;32.65
64792;BME280;51226;47.504;19.074;2023-05-07T14:24:21;100218.34;;;27.38;31.11
64792;BME280;51226;47.504;19.074;2023-05-07T14:27:39;100216.25;;;27.20;31.81
64792;BME280;51226;47.504;19.074;2023-05-07T14:30:42;100219.22;;;27.12;32.20
64792;BME280;51226;47.504;19.074;2023-05-07T14:33:44;100234.03;;;26.95;33.61
64792;BME280;51226;47.504;19.074;2023-05-07T14:36:48;100230.44;;;26.96;32.67
64792;BME280;51226;47.504;19.074;2023-05-07T14:39:50;100233.63;;;26.79;32.71
64792;BME280;51226;47.504;19.074;2023-05-07T14:42:53;100233.06;;;26.70;33.21
64792;BME280;51226;47.504;19.074;2023-05-07T14:45:56;100232.31;;;26.65;33.25
64792;BME280;51226;47.504;19.074;2023-05-07T14:48:59;100241.22;;;26.65;33.25
64792;BME280;51226;47.504;19.074;2023-05-07T14:52:02;100242.62;;;26.47;33.50
64792;BME280;51226;47.504;19.074;2023-05-07T14:55:05;100247.66;;;26.28;35.59
64792;BME280;51226;47.504;19.074;2023-05-07T14:58:08;100250.84;;;26.10;34.33
64792;BME280;51226;47.504;19.074;2023-05-07T15:01:11;100248.47;;;25.99;34.36
64792;BME280;51226;47.504;19.074;2023-05-07T15:04:13;100249.22;;;26.04;33.67
64792;BME280;51226;47.504;19.074;2023-05-07T15:07:17;100248.81;;;25.85;34.61
64792;BME280;51226;47.504;19.074;2023-05-07T15:10:20;100246.28;;;25.80;34.73
64792;BME280;51226;47.504;19.074;2023-05-07T15:13:23;100247.63;;;25.62;35.59
64792;BME280;51226;47.504;19.074;2023-05-07T15:16:25;100254.53;;;25.37;36.96
64792;BME280;51226;47.504;19.074;2023-05-07T15:19:29;100259.22;;;25.27;36.76
64792;BME280;51226;47.504;19.074;2023-05-07T15:22:32;100250.47;;;25.20;37.12
64792;BME280;51226;47.504;19.074;2023-05-07T15:25:35;100242.69;;;25.11;37.03
64792;BME280;51226;47.504;19.074;2023-05-07T15:28:38;100254.06;;;24.80;37.70
64792;BME280;51226;47.504;19.074;2023-05-07T15:31:42;100255.94;;;24.76;37.75
64792;BME280;51226;47.504;19.074;2023-05-07T15:34:44;100257.31;;;24.52;38.24
64792;BME280;51226;47.504;19.074;2023-05-07T15:37:49;100253.09;;;24.42;38.15
64792;BME280;51226;47.504;19.074;2023-05-07T15:40:53;100250.63;;;24.33;38.02
64792;BME280;51226;47.504;19.074;2023-05-07T15:43:57;100249.06;;;24.22;38.32
64792;BME280;51226;47.504;19.074;2023-05-07T15:46:59;100249.84;;;24.28;37.72
64792;BME280;51226;47.504;19.074;2023-05-07T15:50:02;100250.97;;;24.17;37.34
64792;BME280;51226;47.504;19.074;2023-05-07T15:53:05;100244.97;;;24.06;37.33
64792;BME280;51226;47.504;19.074;2023-05-07T15:56:08;100247.72;;;24.01;36.81
64792;BME280;51226;47.504;19.074;2023-05-07T15:59:10;100255.09;;;23.85;37.42
64792;BME280;51226;47.504;19.074;2023-05-07T16:02:15;100256.19;;;23.72;37.76
64792;BME280;51226;47.504;19.074;2023-05-07T16:05:18;100255.41;;;23.67;37.21
64792;BME280;51226;47.504;19.074;2023-05-07T16:08:21;100254.81;;;23.51;38.09
64792;BME280;51226;47.504;19.074;2023-05-07T16:11:24;100258.50;;;23.44;37.25